Portada
METAR-TAF:

METAR-TAF

Aeroports :

Jabalpur, Índia

latitud: 23-10-54N, longitud: 80-03-31E, altitud: 495 m

Observació

L'informe es va fer fa 6 hores i 25 minuts, a les 13:00 UTC
Vent 6 kt del Oest/Sud-Oest
Temperatura 27°C
Humitat 89%
Pressió 999 hPa
Visibilitat: 4000 m
Núvols disperses a una alçada de 1000 ft
Núvols disperses a una alçada de 2000 ft
Cel cobert a una alçada de 9000 ft
boirina

METAR: VAJB 231300Z 24006KT 4000 BR SCT010 SCT020 OVC090 27/25 Q0999

Hora: 00:55 (19:25 UTC)

Pronòstic

L'informe es va fer fa 2 hores i 25 minuts, a les 17:00 UTC
Pronòstic vàlid del 23 a les 18 UTC al 24 a les 03 UTC
Vent 10 kt del Oest
Visibilitat: 3000 m
Núvols disperses a una alçada de 1000 ft
Cel ennuvolat a una alçada de 2000 ft
Escasses núvols a una alçada de 3000 ft, Cumulonimbus.
Cel cobert a una alçada de 8000 ft
pluja, tempesta, pluja

TAF: VAJB 231700Z 2318/2403 27010KT 3000 -RA TSRA SCT010 BKN020 FEW030CB OVC080

Observacions i pronòstics meteorològics de més de 4000 aeroports (METAR i TAF).

Les estacions disponibles són els punts grocs i vermells al mapa.

Posi el ratolí al punt desitjat per veure el nom de l'estació.

Feu clic per veure les observacions i els pronòstics meteorològics.

Per canviar el mapa: feu clic els botons verds amb una creu de color negre per apropar; al botó verd amb un guió per allunyar la imatge; o en les fletxes verdes per a mapes adjacents.


METAR-TAF: